sensor_id;sensor_type;location;lat;lon;timestamp;pressure;altitude;pressure_sealevel;temperature;humidity
9141;BME280;46330;50.822;7.126;2023-03-13T00:01:41;99944.97;;;9.41;87.33
9141;BME280;46330;50.822;7.126;2023-03-13T00:04:09;99944.94;;;9.42;87.38
9141;BME280;46330;50.822;7.126;2023-03-13T00:06:38;99935.38;;;9.43;87.99
9141;BME280;46330;50.822;7.126;2023-03-13T00:09:08;99930.88;;;9.48;87.73
9141;BME280;46330;50.822;7.126;2023-03-13T00:11:36;99929.06;;;9.50;87.49
9141;BME280;46330;50.822;7.126;2023-03-13T00:14:05;99924.78;;;9.47;87.97
9141;BME280;46330;50.822;7.126;2023-03-13T00:16:34;99910.84;;;9.48;88.04
9141;BME280;46330;50.822;7.126;2023-03-13T00:19:08;99920.31;;;9.52;88.62
9141;BME280;46330;50.822;7.126;2023-03-13T00:21:36;99912.31;;;9.58;87.87
9141;BME280;46330;50.822;7.126;2023-03-13T00:24:09;99906.94;;;9.64;87.95
9141;BME280;46330;50.822;7.126;2023-03-13T00:26:37;99893.72;;;9.70;87.97
9141;BME280;46330;50.822;7.126;2023-03-13T00:29:05;99882.34;;;9.71;87.96
9141;BME280;46330;50.822;7.126;2023-03-13T00:31:33;99875.28;;;9.75;87.89
9141;BME280;46330;50.822;7.126;2023-03-13T00:34:02;99869.09;;;9.79;87.35
9141;BME280;46330;50.822;7.126;2023-03-13T00:36:33;99861.25;;;9.79;88.13
9141;BME280;46330;50.822;7.126;2023-03-13T00:39:02;99853.16;;;9.88;87.60
9141;BME280;46330;50.822;7.126;2023-03-13T00:41:31;99846.09;;;9.92;87.77
9141;BME280;46330;50.822;7.126;2023-03-13T00:44:00;99829.44;;;9.96;88.08
9141;BME280;46330;50.822;7.126;2023-03-13T00:46:29;99838.25;;;9.92;89.28
9141;BME280;46330;50.822;7.126;2023-03-13T00:48:57;99838.28;;;9.90;90.43
9141;BME280;46330;50.822;7.126;2023-03-13T00:51:26;99819.16;;;9.90;91.12
9141;BME280;46330;50.822;7.126;2023-03-13T00:53:56;99812.25;;;9.87;92.39
9141;BME280;46330;50.822;7.126;2023-03-13T00:56:26;99811.44;;;9.85;93.66
9141;BME280;46330;50.822;7.126;2023-03-13T00:58:54;99801.09;;;9.82;95.14
9141;BME280;46330;50.822;7.126;2023-03-13T01:01:24;99809.88;;;9.80;95.50
9141;BME280;46330;50.822;7.126;2023-03-13T01:03:55;99798.59;;;9.78;96.21
9141;BME280;46330;50.822;7.126;2023-03-13T01:06:25;99795.00;;;9.82;96.48
9141;BME280;46330;50.822;7.126;2023-03-13T01:08:58;99788.91;;;9.81;97.56
9141;BME280;46330;50.822;7.126;2023-03-13T01:11:27;99786.50;;;9.75;98.75
9141;BME280;46330;50.822;7.126;2023-03-13T01:13:57;99784.72;;;9.77;97.60
9141;BME280;46330;50.822;7.126;2023-03-13T01:16:27;99785.63;;;9.74;98.26
9141;BME280;46330;50.822;7.126;2023-03-13T01:18:58;99778.63;;;9.77;98.02
9141;BME280;46330;50.822;7.126;2023-03-13T01:21:27;99774.38;;;9.74;98.44
9141;BME280;46330;50.822;7.126;2023-03-13T01:23:57;99769.06;;;9.76;98.86
9141;BME280;46330;50.822;7.126;2023-03-13T01:26:26;99772.56;;;9.76;98.11
9141;BME280;46330;50.822;7.126;2023-03-13T01:28:54;99757.78;;;9.75;98.54
9141;BME280;46330;50.822;7.126;2023-03-13T01:31:24;99753.38;;;9.77;98.49
9141;BME280;46330;50.822;7.126;2023-03-13T01:33:54;99759.50;;;9.76;98.20
9141;BME280;46330;50.822;7.126;2023-03-13T01:36:24;99755.16;;;9.75;98.69
9141;BME280;46330;50.822;7.126;2023-03-13T01:38:54;99752.56;;;9.75;99.15
9141;BME280;46330;50.822;7.126;2023-03-13T01:41:26;99751.69;;;9.74;98.95
9141;BME280;46330;50.822;7.126;2023-03-13T01:43:54;99751.66;;;9.76;98.58
9141;BME280;46330;50.822;7.126;2023-03-13T01:46:26;99735.91;;;9.79;99.26
9141;BME280;46330;50.822;7.126;2023-03-13T01:49:10;99723.63;;;9.81;98.99
9141;BME280;46330;50.822;7.126;2023-03-13T01:51:54;99725.22;;;9.87;99.12
9141;BME280;46330;50.822;7.126;2023-03-13T01:54:28;99722.63;;;9.87;98.57
9141;BME280;46330;50.822;7.126;2023-03-13T01:57:01;99720.53;;;9.96;97.96
9141;BME280;46330;50.822;7.126;2023-03-13T01:59:31;99710.03;;;9.99;97.64
9141;BME280;46330;50.822;7.126;2023-03-13T02:02:02;99705.63;;;10.00;98.21
9141;BME280;46330;50.822;7.126;2023-03-13T02:04:34;99712.44;;;10.05;97.10
9141;BME280;46330;50.822;7.126;2023-03-13T02:07:06;99688.66;;;10.14;96.37
9141;BME280;46330;50.822;7.126;2023-03-13T02:09:39;99691.00;;;10.22;96.10
9141;BME280;46330;50.822;7.126;2023-03-13T02:12:12;99687.38;;;10.26;95.59
9141;BME280;46330;50.822;7.126;2023-03-13T02:14:43;99671.53;;;10.31;95.49
9141;BME280;46330;50.822;7.126;2023-03-13T02:17:13;99673.38;;;10.29;96.00
9141;BME280;46330;50.822;7.126;2023-03-13T02:19:43;99659.50;;;10.27;96.20
9141;BME280;46330;50.822;7.126;2023-03-13T02:22:18;99653.22;;;10.32;95.66
9141;BME280;46330;50.822;7.126;2023-03-13T02:24:53;99643.63;;;10.33;95.60
9141;BME280;46330;50.822;7.126;2023-03-13T02:27:25;99637.28;;;10.40;95.05
9141;BME280;46330;50.822;7.126;2023-03-13T02:29:53;99629.47;;;10.38;95.58
9141;BME280;46330;50.822;7.126;2023-03-13T02:32:21;99625.69;;;10.47;95.58
9141;BME280;46330;50.822;7.126;2023-03-13T02:34:52;99627.19;;;10.54;94.92
9141;BME280;46330;50.822;7.126;2023-03-13T02:37:22;99618.53;;;10.52;95.91
9141;BME280;46330;50.822;7.126;2023-03-13T02:39:52;99611.72;;;10.48;96.44
9141;BME280;46330;50.822;7.126;2023-03-13T02:42:22;99604.75;;;10.47;97.55
9141;BME280;46330;50.822;7.126;2023-03-13T02:44:51;99607.59;;;10.41;99.98
9141;BME280;46330;50.822;7.126;2023-03-13T02:47:25;99603.44;;;10.35;100.00
9141;BME280;46330;50.822;7.126;2023-03-13T02:49:54;99605.53;;;10.25;100.00
9141;BME280;46330;50.822;7.126;2023-03-13T02:52:24;99605.81;;;10.18;100.00
9141;BME280;46330;50.822;7.126;2023-03-13T02:54:58;99591.97;;;10.13;100.00
9141;BME280;46330;50.822;7.126;2023-03-13T02:57:27;99594.66;;;10.11;100.00
9141;BME280;46330;50.822;7.126;2023-03-13T02:59:57;99590.38;;;10.09;100.00
9141;BME280;46330;50.822;7.126;2023-03-13T03:02:25;99585.31;;;10.04;100.00
9141;BME280;46330;50.822;7.126;2023-03-13T03:04:53;99593.19;;;10.03;100.00
9141;BME280;46330;50.822;7.126;2023-03-13T03:07:20;99586.19;;;10.05;100.00
9141;BME280;46330;50.822;7.126;2023-03-13T03:09:49;99581.81;;;10.05;100.00
9141;BME280;46330;50.822;7.126;2023-03-13T03:12:18;99580.97;;;10.05;100.00
9141;BME280;46330;50.822;7.126;2023-03-13T03:14:46;99572.19;;;10.06;100.00
9141;BME280;46330;50.822;7.126;2023-03-13T03:17:17;99569.38;;;10.12;100.00
9141;BME280;46330;50.822;7.126;2023-03-13T03:19:44;99571.16;;;10.11;100.00
9141;BME280;46330;50.822;7.126;2023-03-13T03:22:13;99566.81;;;10.10;100.00
9141;BME280;46330;50.822;7.126;2023-03-13T03:24:40;99557.16;;;10.12;100.00
9141;BME280;46330;50.822;7.126;2023-03-13T03:27:08;99559.69;;;10.15;100.00
9141;BME280;46330;50.822;7.126;2023-03-13T03:29:42;99556.88;;;10.21;100.00
9141;BME280;46330;50.822;7.126;2023-03-13T03:32:10;99542.81;;;10.25;100.00
9141;BME280;46330;50.822;7.126;2023-03-13T03:34:39;99555.88;;;10.25;100.00
9141;BME280;46330;50.822;7.126;2023-03-13T03:37:08;99558.56;;;10.24;100.00
9141;BME280;46330;50.822;7.126;2023-03-13T03:39:38;99560.19;;;10.27;100.00
9141;BME280;46330;50.822;7.126;2023-03-13T03:42:06;99565.25;;;10.31;100.00
9141;BME280;46330;50.822;7.126;2023-03-13T03:44:36;99566.06;;;10.33;100.00
9141;BME280;46330;50.822;7.126;2023-03-13T03:47:04;99552.88;;;10.36;100.00
9141;BME280;46330;50.822;7.126;2023-03-13T03:49:38;99558.13;;;10.36;100.00
9141;BME280;46330;50.822;7.126;2023-03-13T03:52:08;99544.97;;;10.38;100.00
9141;BME280;46330;50.822;7.126;2023-03-13T03:54:39;99558.91;;;10.38;100.00
9141;BME280;46330;50.822;7.126;2023-03-13T03:57:07;99545.69;;;10.43;100.00
9141;BME280;46330;50.822;7.126;2023-03-13T03:59:36;99535.09;;;10.46;100.00
9141;BME280;46330;50.822;7.126;2023-03-13T04:02:08;99532.38;;;10.49;100.00
9141;BME280;46330;50.822;7.126;2023-03-13T04:04:39;99523.72;;;10.47;100.00
9141;BME280;46330;50.822;7.126;2023-03-13T04:07:33;99535.03;;;10.47;100.00
9141;BME280;46330;50.822;7.126;2023-03-13T04:10:01;99526.44;;;10.44;100.00
9141;BME280;46330;50.822;7.126;2023-03-13T04:12:41;99521.09;;;10.47;100.00
9141;BME280;46330;50.822;7.126;2023-03-13T04:15:10;99505.31;;;10.50;100.00
9141;BME280;46330;50.822;7.126;2023-03-13T04:17:37;99503.66;;;10.47;100.00
9141;BME280;46330;50.822;7.126;2023-03-13T04:20:10;99509.69;;;10.49;100.00
9141;BME280;46330;50.822;7.126;2023-03-13T04:22:39;99509.75;;;10.48;100.00
9141;BME280;46330;50.822;7.126;2023-03-13T04:25:08;99513.16;;;10.50;100.00
9141;BME280;46330;50.822;7.126;2023-03-13T04:27:37;99508.91;;;10.47;100.00
9141;BME280;46330;50.822;7.126;2023-03-13T04:30:07;99495.91;;;10.46;100.00
9141;BME280;46330;50.822;7.126;2023-03-13T04:33:04;99486.34;;;10.45;100.00
9141;BME280;46330;50.822;7.126;2023-03-13T04:35:59;99492.31;;;10.48;100.00
9141;BME280;46330;50.822;7.126;2023-03-13T04:38:42;99491.34;;;10.51;100.00
9141;BME280;46330;50.822;7.126;2023-03-13T04:41:39;99480.03;;;10.50;100.00
9141;BME280;46330;50.822;7.126;2023-03-13T04:44:33;99488.56;;;10.55;100.00
9141;BME280;46330;50.822;7.126;2023-03-13T04:47:24;99484.66;;;10.65;100.00
9141;BME280;46330;50.822;7.126;2023-03-13T04:50:06;99489.78;;;10.68;100.00
9141;BME280;46330;50.822;7.126;2023-03-13T04:53:02;99494.06;;;10.71;100.00
9141;BME280;46330;50.822;7.126;2023-03-13T04:55:54;99490.59;;;10.70;100.00
9141;BME280;46330;50.822;7.126;2023-03-13T04:58:43;99485.78;;;10.82;100.00
9141;BME280;46330;50.822;7.126;2023-03-13T05:01:33;99478.59;;;10.87;100.00
9141;BME280;46330;50.822;7.126;2023-03-13T05:04:12;99485.50;;;10.89;100.00
9141;BME280;46330;50.822;7.126;2023-03-13T05:06:56;99483.63;;;10.93;100.00
9141;BME280;46330;50.822;7.126;2023-03-13T05:09:31;99462.56;;;10.96;100.00
9141;BME280;46330;50.822;7.126;2023-03-13T05:12:19;99454.59;;;10.99;100.00
9141;BME280;46330;50.822;7.126;2023-03-13T05:15:07;99453.78;;;10.97;100.00
9141;BME280;46330;50.822;7.126;2023-03-13T05:17:58;99454.66;;;10.97;100.00
9141;BME280;46330;50.822;7.126;2023-03-13T05:20:35;99454.47;;;11.02;100.00
9141;BME280;46330;50.822;7.126;2023-03-13T05:23:05;99456.91;;;11.06;100.00
9141;BME280;46330;50.822;7.126;2023-03-13T05:25:53;99461.16;;;11.09;100.00
9141;BME280;46330;50.822;7.126;2023-03-13T05:28:48;99460.00;;;11.16;100.00
9141;BME280;46330;50.822;7.126;2023-03-13T05:31:42;99460.72;;;11.19;100.00
9141;BME280;46330;50.822;7.126;2023-03-13T05:34:16;99462.47;;;11.41;100.00
9141;BME280;46330;50.822;7.126;2023-03-13T05:37:13;99447.09;;;11.33;100.00
9141;BME280;46330;50.822;7.126;2023-03-13T05:39:59;99445.38;;;11.32;100.00
9141;BME280;46330;50.822;7.126;2023-03-13T05:42:46;99458.38;;;11.33;100.00
9141;BME280;46330;50.822;7.126;2023-03-13T05:45:40;99446.22;;;11.32;100.00
9141;BME280;46330;50.822;7.126;2023-03-13T05:48:31;99450.47;;;11.35;100.00
9141;BME280;46330;50.822;7.126;2023-03-13T05:51:11;99454.63;;;11.61;100.00
9141;BME280;46330;50.822;7.126;2023-03-13T05:53:55;99453.97;;;11.56;100.00
9141;BME280;46330;50.822;7.126;2023-03-13T05:56:45;99450.69;;;11.51;100.00
9141;BME280;46330;50.822;7.126;2023-03-13T05:59:52;99447.94;;;11.54;100.00
9141;BME280;46330;50.822;7.126;2023-03-13T06:02:39;99446.09;;;11.56;100.00
9141;BME280;46330;50.822;7.126;2023-03-13T06:05:10;99447.09;;;11.53;100.00
9141;BME280;46330;50.822;7.126;2023-03-13T06:07:38;99441.94;;;11.52;100.00
9141;BME280;46330;50.822;7.126;2023-03-13T06:10:06;99443.75;;;11.50;100.00
9141;BME280;46330;50.822;7.126;2023-03-13T06:12:34;99449.97;;;11.47;100.00
9141;BME280;46330;50.822;7.126;2023-03-13T06:15:06;99451.00;;;11.43;100.00
9141;BME280;46330;50.822;7.126;2023-03-13T06:17:52;99444.91;;;11.43;100.00
9141;BME280;46330;50.822;7.126;2023-03-13T06:20:20;99432.69;;;11.43;100.00
9141;BME280;46330;50.822;7.126;2023-03-13T06:22:49;99423.72;;;11.49;100.00
9141;BME280;46330;50.822;7.126;2023-03-13T06:25:17;99417.88;;;11.62;100.00
9141;BME280;46330;50.822;7.126;2023-03-13T06:27:45;99423.84;;;11.66;100.00
9141;BME280;46330;50.822;7.126;2023-03-13T06:30:15;99427.25;;;11.68;100.00
9141;BME280;46330;50.822;7.126;2023-03-13T06:32:43;99457.53;;;11.75;100.00
9141;BME280;46330;50.822;7.126;2023-03-13T06:35:11;99471.50;;;11.75;100.00
9141;BME280;46330;50.822;7.126;2023-03-13T06:37:38;99456.56;;;11.77;100.00
9141;BME280;46330;50.822;7.126;2023-03-13T06:40:07;99463.31;;;11.83;100.00
9141;BME280;46330;50.822;7.126;2023-03-13T06:42:35;99460.63;;;11.84;100.00
9141;BME280;46330;50.822;7.126;2023-03-13T06:45:04;99466.63;;;11.86;100.00
9141;BME280;46330;50.822;7.126;2023-03-13T06:47:33;99472.41;;;11.95;100.00
9141;BME280;46330;50.822;7.126;2023-03-13T06:50:01;99474.94;;;11.96;100.00
9141;BME280;46330;50.822;7.126;2023-03-13T06:52:29;99483.41;;;12.03;100.00
9141;BME280;46330;50.822;7.126;2023-03-13T06:55:09;99485.03;;;12.05;100.00
9141;BME280;46330;50.822;7.126;2023-03-13T06:57:37;99493.19;;;12.18;100.00
9141;BME280;46330;50.822;7.126;2023-03-13T07:00:07;99495.22;;;12.31;100.00
9141;BME280;46330;50.822;7.126;2023-03-13T07:02:38;99488.94;;;12.35;99.65
9141;BME280;46330;50.822;7.126;2023-03-13T07:05:07;99487.94;;;12.38;99.74
9141;BME280;46330;50.822;7.126;2023-03-13T07:07:35;99486.88;;;12.42;99.62
9141;BME280;46330;50.822;7.126;2023-03-13T07:10:03;99485.34;;;12.57;98.05
9141;BME280;46330;50.822;7.126;2023-03-13T07:12:33;99491.34;;;12.77;96.41
9141;BME280;46330;50.822;7.126;2023-03-13T07:15:01;99493.84;;;12.80;95.94
9141;BME280;46330;50.822;7.126;2023-03-13T07:17:29;99491.28;;;12.79;96.00
9141;BME280;46330;50.822;7.126;2023-03-13T07:19:58;99488.81;;;12.76;96.21
9141;BME280;46330;50.822;7.126;2023-03-13T07:22:26;99486.09;;;12.77;95.78
9141;BME280;46330;50.822;7.126;2023-03-13T07:24:54;99489.88;;;12.90;94.60
9141;BME280;46330;50.822;7.126;2023-03-13T07:27:22;99487.72;;;12.80;95.58
9141;BME280;46330;50.822;7.126;2023-03-13T07:29:50;99493.06;;;12.78;94.63
9141;BME280;46330;50.822;7.126;2023-03-13T07:32:18;99490.50;;;12.77;94.71
9141;BME280;46330;50.822;7.126;2023-03-13T07:34:46;99492.50;;;12.90;92.89
9141;BME280;46330;50.822;7.126;2023-03-13T07:37:15;99494.19;;;12.91;92.55
9141;BME280;46330;50.822;7.126;2023-03-13T07:39:43;99495.41;;;12.84;93.08
9141;BME280;46330;50.822;7.126;2023-03-13T07:42:11;99491.34;;;12.96;91.59
9141;BME280;46330;50.822;7.126;2023-03-13T07:44:40;99491.69;;;13.07;90.24
9141;BME280;46330;50.822;7.126;2023-03-13T07:47:07;99493.75;;;13.19;89.55
9141;BME280;46330;50.822;7.126;2023-03-13T07:49:35;99481.63;;;13.17;89.43
9141;BME280;46330;50.822;7.126;2023-03-13T07:52:07;99477.63;;;13.27;88.80
9141;BME280;46330;50.822;7.126;2023-03-13T07:54:37;99459.34;;;13.42;87.38
9141;BME280;46330;50.822;7.126;2023-03-13T07:57:05;99460.59;;;13.53;87.30
9141;BME280;46330;50.822;7.126;2023-03-13T07:59:33;99454.09;;;13.60;85.77
9141;BME280;46330;50.822;7.126;2023-03-13T08:02:01;99452.19;;;13.63;86.20
9141;BME280;46330;50.822;7.126;2023-03-13T08:04:29;99457.34;;;13.65;85.19
9141;BME280;46330;50.822;7.126;2023-03-13T08:06:57;99453.53;;;13.70;85.07
9141;BME280;46330;50.822;7.126;2023-03-13T08:09:25;99452.47;;;13.74;84.31
9141;BME280;46330;50.822;7.126;2023-03-13T08:11:54;99443.03;;;13.70;83.49
9141;BME280;46330;50.822;7.126;2023-03-13T08:14:22;99452.31;;;13.77;82.88
9141;BME280;46330;50.822;7.126;2023-03-13T08:16:50;99450.75;;;13.73;83.29
9141;BME280;46330;50.822;7.126;2023-03-13T08:19:18;99453.38;;;13.73;82.89
9141;BME280;46330;50.822;7.126;2023-03-13T08:21:46;99443.34;;;13.64;83.60
9141;BME280;46330;50.822;7.126;2023-03-13T08:24:13;99436.25;;;13.66;82.25
9141;BME280;46330;50.822;7.126;2023-03-13T08:26:41;99445.00;;;13.67;82.25
9141;BME280;46330;50.822;7.126;2023-03-13T08:29:12;99437.31;;;13.62;82.72
9141;BME280;46330;50.822;7.126;2023-03-13T08:31:43;99446.13;;;13.61;82.63
9141;BME280;46330;50.822;7.126;2023-03-13T08:34:11;99431.22;;;13.62;82.07
9141;BME280;46330;50.822;7.126;2023-03-13T08:36:40;99430.28;;;13.63;82.31
9141;BME280;46330;50.822;7.126;2023-03-13T08:39:10;99441.88;;;13.59;82.83
9141;BME280;46330;50.822;7.126;2023-03-13T08:41:38;99431.97;;;13.64;82.23
9141;BME280;46330;50.822;7.126;2023-03-13T08:44:09;99430.84;;;13.69;81.61
9141;BME280;46330;50.822;7.126;2023-03-13T08:46:39;99434.97;;;13.73;81.12
9141;BME280;46330;50.822;7.126;2023-03-13T08:49:08;99434.75;;;13.78;81.28
9141;BME280;46330;50.822;7.126;2023-03-13T08:51:36;99431.44;;;13.74;82.29
9141;BME280;46330;50.822;7.126;2023-03-13T08:54:05;99432.34;;;13.73;83.11
9141;BME280;46330;50.822;7.126;2023-03-13T08:56:33;99425.66;;;13.68;84.09
9141;BME280;46330;50.822;7.126;2023-03-13T08:59:03;99420.47;;;13.66;84.26
9141;BME280;46330;50.822;7.126;2023-03-13T09:01:32;99416.31;;;13.62;84.53
9141;BME280;46330;50.822;7.126;2023-03-13T09:04:03;99418.84;;;13.81;83.39
9141;BME280;46330;50.822;7.126;2023-03-13T09:06:31;99426.03;;;13.77;83.52
9141;BME280;46330;50.822;7.126;2023-03-13T09:09:00;99423.56;;;13.74;83.72
9141;BME280;46330;50.822;7.126;2023-03-13T09:11:28;99427.03;;;13.75;84.15
9141;BME280;46330;50.822;7.126;2023-03-13T09:13:56;99426.94;;;13.76;84.58
9141;BME280;46330;50.822;7.126;2023-03-13T09:16:26;99424.78;;;13.84;84.34
9141;BME280;46330;50.822;7.126;2023-03-13T09:18:55;99426.56;;;13.84;84.85
9141;BME280;46330;50.822;7.126;2023-03-13T09:21:26;99417.81;;;13.83;84.93
9141;BME280;46330;50.822;7.126;2023-03-13T09:23:54;99418.63;;;13.85;85.01
9141;BME280;46330;50.822;7.126;2023-03-13T09:26:33;99416.22;;;13.81;86.02
9141;BME280;46330;50.822;7.126;2023-03-13T09:29:01;99429.13;;;13.85;85.64
9141;BME280;46330;50.822;7.126;2023-03-13T09:31:30;99417.75;;;13.85;86.28
9141;BME280;46330;50.822;7.126;2023-03-13T09:33:59;99423.88;;;13.85;86.72
9141;BME280;46330;50.822;7.126;2023-03-13T09:36:29;99407.78;;;13.91;86.90
9141;BME280;46330;50.822;7.126;2023-03-13T09:38:58;99408.09;;;14.01;86.37
9141;BME280;46330;50.822;7.126;2023-03-13T09:41:33;99400.91;;;14.05;86.62
9141;BME280;46330;50.822;7.126;2023-03-13T09:44:06;99394.72;;;14.06;86.93
9141;BME280;46330;50.822;7.126;2023-03-13T09:46:40;99400.75;;;14.08;86.05
9141;BME280;46330;50.822;7.126;2023-03-13T09:49:26;99396.44;;;14.07;86.67
9141;BME280;46330;50.822;7.126;2023-03-13T09:52:03;99398.44;;;14.01;87.02
9141;BME280;46330;50.822;7.126;2023-03-13T09:54:38;99406.44;;;14.00;87.03
9141;BME280;46330;50.822;7.126;2023-03-13T09:57:15;99386.25;;;14.00;87.31
9141;BME280;46330;50.822;7.126;2023-03-13T09:59:48;99393.28;;;14.00;87.38
9141;BME280;46330;50.822;7.126;2023-03-13T10:02:27;99387.16;;;13.99;87.46
9141;BME280;46330;50.822;7.126;2023-03-13T10:05:09;99387.94;;;14.01;88.08
9141;BME280;46330;50.822;7.126;2023-03-13T10:07:40;99395.66;;;14.05;88.06
9141;BME280;46330;50.822;7.126;2023-03-13T10:10:13;99385.00;;;14.23;87.09
9141;BME280;46330;50.822;7.126;2023-03-13T10:12:44;99378.34;;;14.33;86.95
9141;BME280;46330;50.822;7.126;2023-03-13T10:15:34;99373.22;;;14.30;87.24
9141;BME280;46330;50.822;7.126;2023-03-13T10:18:13;99367.25;;;14.44;86.47
9141;BME280;46330;50.822;7.126;2023-03-13T10:20:45;99369.72;;;14.30;87.04
9141;BME280;46330;50.822;7.126;2023-03-13T10:23:18;99366.91;;;14.34;87.23
9141;BME280;46330;50.822;7.126;2023-03-13T10:25:47;99368.84;;;14.62;86.19
9141;BME280;46330;50.822;7.126;2023-03-13T10:28:16;99361.34;;;14.70;85.20
9141;BME280;46330;50.822;7.126;2023-03-13T10:30:47;99360.94;;;14.78;85.01
9141;BME280;46330;50.822;7.126;2023-03-13T10:33:21;99357.66;;;14.88;84.60
9141;BME280;46330;50.822;7.126;2023-03-13T10:36:00;99354.38;;;15.00;84.23
9141;BME280;46330;50.822;7.126;2023-03-13T10:38:32;99357.94;;;14.84;84.52
9141;BME280;46330;50.822;7.126;2023-03-13T10:41:08;99352.44;;;14.73;84.68
9141;BME280;46330;50.822;7.126;2023-03-13T10:43:49;99352.88;;;14.65;84.94
9141;BME280;46330;50.822;7.126;2023-03-13T10:46:25;99355.94;;;14.58;85.28
9141;BME280;46330;50.822;7.126;2023-03-13T10:48:54;99343.97;;;14.68;85.32
9141;BME280;46330;50.822;7.126;2023-03-13T10:51:24;99329.09;;;14.67;85.47
9141;BME280;46330;50.822;7.126;2023-03-13T10:53:58;99325.28;;;14.72;85.82
9141;BME280;46330;50.822;7.126;2023-03-13T10:56:28;99330.19;;;14.78;85.88
9141;BME280;46330;50.822;7.126;2023-03-13T10:58:57;99329.75;;;14.86;85.25
9141;BME280;46330;50.822;7.126;2023-03-13T11:01:26;99327.75;;;14.75;84.78
9141;BME280;46330;50.822;7.126;2023-03-13T11:03:57;99320.91;;;14.87;84.18
9141;BME280;46330;50.822;7.126;2023-03-13T11:06:29;99320.38;;;14.96;83.88
9141;BME280;46330;50.822;7.126;2023-03-13T11:09:01;99311.22;;;15.17;82.64
9141;BME280;46330;50.822;7.126;2023-03-13T11:11:30;99307.69;;;15.46;81.37
9141;BME280;46330;50.822;7.126;2023-03-13T11:14:14;99308.19;;;15.67;79.41
9141;BME280;46330;50.822;7.126;2023-03-13T11:16:47;99295.75;;;15.97;78.13
9141;BME280;46330;50.822;7.126;2023-03-13T11:19:39;99296.47;;;16.28;76.93
9141;BME280;46330;50.822;7.126;2023-03-13T11:22:29;99288.31;;;16.59;75.59
9141;BME280;46330;50.822;7.126;2023-03-13T11:25:15;99283.66;;;16.22;75.87
9141;BME280;46330;50.822;7.126;2023-03-13T11:27:52;99270.63;;;16.33;75.84
9141;BME280;46330;50.822;7.126;2023-03-13T11:30:38;99271.88;;;16.27;75.00
9141;BME280;46330;50.822;7.126;2023-03-13T11:33:17;99250.94;;;16.51;75.52
9141;BME280;46330;50.822;7.126;2023-03-13T11:35:49;99255.53;;;16.35;76.79
9141;BME280;46330;50.822;7.126;2023-03-13T11:38:26;99243.31;;;16.20;75.92
9141;BME280;46330;50.822;7.126;2023-03-13T11:41:05;99231.25;;;16.03;75.94
9141;BME280;46330;50.822;7.126;2023-03-13T11:44:08;99234.34;;;16.22;76.41
9141;BME280;46330;50.822;7.126;2023-03-13T11:46:48;99215.44;;;16.69;73.67
9141;BME280;46330;50.822;7.126;2023-03-13T11:49:32;99196.25;;;16.80;72.72
9141;BME280;46330;50.822;7.126;2023-03-13T11:52:30;99220.22;;;16.89;71.69
9141;BME280;46330;50.822;7.126;2023-03-13T11:55:11;99208.16;;;16.73;72.19
9141;BME280;46330;50.822;7.126;2023-03-13T11:57:51;99198.38;;;17.00;70.48
9141;BME280;46330;50.822;7.126;2023-03-13T12:00:28;99187.38;;;16.93;69.59
9141;BME280;46330;50.822;7.126;2023-03-13T12:03:01;99192.88;;;16.78;69.71
9141;BME280;46330;50.822;7.126;2023-03-13T12:05:39;99191.19;;;17.27;66.89
9141;BME280;46330;50.822;7.126;2023-03-13T12:08:13;99184.13;;;17.15;66.44
9141;BME280;46330;50.822;7.126;2023-03-13T12:10:46;99186.97;;;17.25;67.32
9141;BME280;46330;50.822;7.126;2023-03-13T12:13:26;99176.88;;;17.42;68.24
9141;BME280;46330;50.822;7.126;2023-03-13T12:15:57;99182.63;;;16.98;67.07
9141;BME280;46330;50.822;7.126;2023-03-13T12:18:30;99177.25;;;16.87;68.21
9141;BME280;46330;50.822;7.126;2023-03-13T12:21:04;99181.34;;;16.91;68.90
9141;BME280;46330;50.822;7.126;2023-03-13T12:23:42;99178.06;;;16.88;69.69
9141;BME280;46330;50.822;7.126;2023-03-13T12:26:16;99169.63;;;16.83;69.16
9141;BME280;46330;50.822;7.126;2023-03-13T12:28:52;99155.25;;;16.74;69.95
9141;BME280;46330;50.822;7.126;2023-03-13T12:31:27;99164.09;;;16.60;69.46
9141;BME280;46330;50.822;7.126;2023-03-13T12:34:05;99149.53;;;16.67;70.88
9141;BME280;46330;50.822;7.126;2023-03-13T12:36:38;99159.22;;;16.54;69.63
9141;BME280;46330;50.822;7.126;2023-03-13T12:39:19;99163.69;;;16.66;70.04
9141;BME280;46330;50.822;7.126;2023-03-13T12:41:56;99154.91;;;16.79;69.59
9141;BME280;46330;50.822;7.126;2023-03-13T12:44:34;99149.84;;;17.01;68.39
9141;BME280;46330;50.822;7.126;2023-03-13T12:47:08;99150.50;;;16.79;67.67
9141;BME280;46330;50.822;7.126;2023-03-13T12:50:03;99133.06;;;16.64;67.96
9141;BME280;46330;50.822;7.126;2023-03-13T12:53:01;99136.13;;;16.71;67.70
9141;BME280;46330;50.822;7.126;2023-03-13T12:55:43;99128.50;;;16.66;67.23
9141;BME280;46330;50.822;7.126;2023-03-13T12:58:28;99118.94;;;16.78;67.60
9141;BME280;46330;50.822;7.126;2023-03-13T13:01:03;99111.63;;;16.56;68.32
9141;BME280;46330;50.822;7.126;2023-03-13T13:03:34;99127.66;;;16.53;69.58
9141;BME280;46330;50.822;7.126;2023-03-13T13:06:09;99121.50;;;16.40;69.79
9141;BME280;46330;50.822;7.126;2023-03-13T13:08:40;99117.47;;;16.34;70.19
9141;BME280;46330;50.822;7.126;2023-03-13T13:14:57;99098.31;;;16.05;71.32
9141;BME280;46330;50.822;7.126;2023-03-13T13:17:51;99106.22;;;16.05;72.66
9141;BME280;46330;50.822;7.126;2023-03-13T13:20:33;99091.22;;;15.93;72.83
9141;BME280;46330;50.822;7.126;2023-03-13T13:23:23;99091.00;;;15.96;72.83
9141;BME280;46330;50.822;7.126;2023-03-13T13:25:53;99092.22;;;15.78;74.02
9141;BME280;46330;50.822;7.126;2023-03-13T13:28:32;99088.31;;;15.84;74.15
9141;BME280;46330;50.822;7.126;2023-03-13T13:31:01;99067.09;;;16.12;74.34
9141;BME280;46330;50.822;7.126;2023-03-13T13:33:40;99063.19;;;16.18;73.95
9141;BME280;46330;50.822;7.126;2023-03-13T13:36:30;99063.91;;;16.20;73.59
9141;BME280;46330;50.822;7.126;2023-03-13T13:38:58;99060.88;;;16.26;73.38
9141;BME280;46330;50.822;7.126;2023-03-13T13:41:34;99041.34;;;16.41;72.98
9141;BME280;46330;50.822;7.126;2023-03-13T13:44:26;99041.25;;;16.42;73.06
9141;BME280;46330;50.822;7.126;2023-03-13T13:46:56;99034.19;;;16.43;72.95
9141;BME280;46330;50.822;7.126;2023-03-13T13:49:37;99024.69;;;16.15;74.10